sensor_id;sensor_type;location;lat;lon;timestamp;P1;durP1;ratioP1;P2;durP2;ratioP2
17686;SDS011;8962;52.538;13.266;2023-02-24T00:02:11;62.78;;;21.20;;
17686;SDS011;8962;52.538;13.266;2023-02-24T00:04:39;63.45;;;22.00;;
17686;SDS011;8962;52.538;13.266;2023-02-24T00:07:07;60.47;;;20.77;;
17686;SDS011;8962;52.538;13.266;2023-02-24T00:09:35;64.88;;;20.88;;
17686;SDS011;8962;52.538;13.266;2023-02-24T00:12:04;59.92;;;19.70;;
17686;SDS011;8962;52.538;13.266;2023-02-24T00:14:34;60.35;;;19.35;;
17686;SDS011;8962;52.538;13.266;2023-02-24T00:17:03;56.47;;;19.60;;
17686;SDS011;8962;52.538;13.266;2023-02-24T00:19:33;61.00;;;20.25;;
17686;SDS011;8962;52.538;13.266;2023-02-24T00:22:02;55.75;;;19.13;;
17686;SDS011;8962;52.538;13.266;2023-02-24T00:24:31;59.65;;;19.75;;
17686;SDS011;8962;52.538;13.266;2023-02-24T00:26:59;59.95;;;20.20;;
17686;SDS011;8962;52.538;13.266;2023-02-24T00:29:31;52.00;;;17.38;;
17686;SDS011;8962;52.538;13.266;2023-02-24T00:32:01;37.28;;;11.93;;
17686;SDS011;8962;52.538;13.266;2023-02-24T00:34:34;29.15;;;10.25;;
17686;SDS011;8962;52.538;13.266;2023-02-24T00:37:02;24.55;;;9.40;;
17686;SDS011;8962;52.538;13.266;2023-02-24T00:39:31;25.95;;;8.68;;
17686;SDS011;8962;52.538;13.266;2023-02-24T00:42:00;26.75;;;8.57;;
17686;SDS011;8962;52.538;13.266;2023-02-24T00:44:30;26.63;;;8.90;;
17686;SDS011;8962;52.538;13.266;2023-02-24T00:46:59;23.73;;;8.45;;
17686;SDS011;8962;52.538;13.266;2023-02-24T00:49:27;26.55;;;7.93;;
17686;SDS011;8962;52.538;13.266;2023-02-24T00:51:57;22.00;;;7.15;;
17686;SDS011;8962;52.538;13.266;2023-02-24T00:54:24;20.27;;;7.68;;
17686;SDS011;8962;52.538;13.266;2023-02-24T00:56:52;23.98;;;8.15;;
17686;SDS011;8962;52.538;13.266;2023-02-24T00:59:21;19.67;;;6.47;;
17686;SDS011;8962;52.538;13.266;2023-02-24T01:01:49;20.10;;;6.97;;
17686;SDS011;8962;52.538;13.266;2023-02-24T01:04:19;23.73;;;6.75;;
17686;SDS011;8962;52.538;13.266;2023-02-24T01:06:47;19.65;;;6.22;;
17686;SDS011;8962;52.538;13.266;2023-02-24T01:09:18;15.18;;;5.70;;
17686;SDS011;8962;52.538;13.266;2023-02-24T01:11:47;19.30;;;5.68;;
17686;SDS011;8962;52.538;13.266;2023-02-24T01:14:32;18.77;;;5.13;;
17686;SDS011;8962;52.538;13.266;2023-02-24T01:17:01;16.60;;;5.80;;
17686;SDS011;8962;52.538;13.266;2023-02-24T01:19:29;24.88;;;5.50;;
17686;SDS011;8962;52.538;13.266;2023-02-24T01:21:58;25.63;;;6.00;;
17686;SDS011;8962;52.538;13.266;2023-02-24T01:24:31;15.65;;;4.93;;
17686;SDS011;8962;52.538;13.266;2023-02-24T01:27:01;14.82;;;4.95;;
17686;SDS011;8962;52.538;13.266;2023-02-24T01:29:29;17.75;;;4.15;;
17686;SDS011;8962;52.538;13.266;2023-02-24T01:31:56;25.27;;;4.78;;
17686;SDS011;8962;52.538;13.266;2023-02-24T01:34:24;21.73;;;3.20;;
17686;SDS011;8962;52.538;13.266;2023-02-24T01:36:52;15.25;;;3.15;;
17686;SDS011;8962;52.538;13.266;2023-02-24T01:39:19;19.02;;;3.58;;
17686;SDS011;8962;52.538;13.266;2023-02-24T01:41:49;13.00;;;3.58;;
17686;SDS011;8962;52.538;13.266;2023-02-24T01:47:21;16.10;;;3.45;;
17686;SDS011;8962;52.538;13.266;2023-02-24T01:49:53;20.83;;;3.30;;
17686;SDS011;8962;52.538;13.266;2023-02-24T01:52:20;20.75;;;3.97;;
17686;SDS011;8962;52.538;13.266;2023-02-24T01:54:51;19.65;;;3.88;;
17686;SDS011;8962;52.538;13.266;2023-02-24T01:57:24;15.70;;;3.50;;
17686;SDS011;8962;52.538;13.266;2023-02-24T01:59:55;20.50;;;3.47;;
17686;SDS011;8962;52.538;13.266;2023-02-24T02:02:39;24.08;;;4.03;;
17686;SDS011;8962;52.538;13.266;2023-02-24T02:05:09;21.30;;;3.78;;
17686;SDS011;8962;52.538;13.266;2023-02-24T02:07:36;16.58;;;3.45;;
17686;SDS011;8962;52.538;13.266;2023-02-24T02:10:05;19.52;;;3.08;;
17686;SDS011;8962;52.538;13.266;2023-02-24T02:12:36;14.77;;;3.35;;
17686;SDS011;8962;52.538;13.266;2023-02-24T02:15:08;15.20;;;3.17;;
17686;SDS011;8962;52.538;13.266;2023-02-24T02:17:39;22.20;;;3.45;;
17686;SDS011;8962;52.538;13.266;2023-02-24T02:26:51;18.20;;;3.92;;
17686;SDS011;8962;52.538;13.266;2023-02-24T02:29:57;16.23;;;3.55;;
17686;SDS011;8962;52.538;13.266;2023-02-24T02:32:55;15.18;;;2.85;;
17686;SDS011;8962;52.538;13.266;2023-02-24T02:35:48;19.83;;;3.30;;
17686;SDS011;8962;52.538;13.266;2023-02-24T02:38:25;14.25;;;2.63;;
17686;SDS011;8962;52.538;13.266;2023-02-24T02:41:02;13.57;;;2.75;;
17686;SDS011;8962;52.538;13.266;2023-02-24T02:43:39;17.30;;;2.42;;
17686;SDS011;8962;52.538;13.266;2023-02-24T02:46:13;15.27;;;3.20;;
17686;SDS011;8962;52.538;13.266;2023-02-24T02:48:58;14.50;;;2.40;;
17686;SDS011;8962;52.538;13.266;2023-02-24T02:51:30;15.52;;;3.05;;
17686;SDS011;8962;52.538;13.266;2023-02-24T02:54:04;21.92;;;2.90;;
17686;SDS011;8962;52.538;13.266;2023-02-24T02:56:36;14.65;;;2.58;;
17686;SDS011;8962;52.538;13.266;2023-02-24T02:59:09;13.50;;;2.90;;
17686;SDS011;8962;52.538;13.266;2023-02-24T03:01:39;15.88;;;2.78;;
17686;SDS011;8962;52.538;13.266;2023-02-24T03:04:10;10.93;;;2.70;;
17686;SDS011;8962;52.538;13.266;2023-02-24T03:06:45;14.02;;;2.80;;
17686;SDS011;8962;52.538;13.266;2023-02-24T03:09:18;18.95;;;3.47;;
17686;SDS011;8962;52.538;13.266;2023-02-24T03:11:49;10.10;;;3.17;;
17686;SDS011;8962;52.538;13.266;2023-02-24T03:14:24;13.52;;;2.47;;
17686;SDS011;8962;52.538;13.266;2023-02-24T03:16:55;15.65;;;3.08;;
17686;SDS011;8962;52.538;13.266;2023-02-24T03:19:26;15.18;;;3.50;;
17686;SDS011;8962;52.538;13.266;2023-02-24T03:22:05;8.63;;;2.75;;
17686;SDS011;8962;52.538;13.266;2023-02-24T03:24:37;17.30;;;3.30;;
17686;SDS011;8962;52.538;13.266;2023-02-24T03:27:09;20.17;;;3.20;;
17686;SDS011;8962;52.538;13.266;2023-02-24T03:29:41;12.27;;;2.80;;
17686;SDS011;8962;52.538;13.266;2023-02-24T03:32:15;22.77;;;3.03;;
17686;SDS011;8962;52.538;13.266;2023-02-24T03:34:47;18.35;;;3.13;;
17686;SDS011;8962;52.538;13.266;2023-02-24T03:37:21;14.48;;;2.67;;
17686;SDS011;8962;52.538;13.266;2023-02-24T03:39:52;17.50;;;3.00;;
17686;SDS011;8962;52.538;13.266;2023-02-24T03:42:23;15.57;;;2.92;;
17686;SDS011;8962;52.538;13.266;2023-02-24T03:44:55;20.73;;;2.88;;
17686;SDS011;8962;52.538;13.266;2023-02-24T03:47:24;12.68;;;2.63;;
17686;SDS011;8962;52.538;13.266;2023-02-24T03:49:52;11.90;;;2.65;;
17686;SDS011;8962;52.538;13.266;2023-02-24T03:52:26;14.93;;;2.88;;
17686;SDS011;8962;52.538;13.266;2023-02-24T03:55:04;10.82;;;3.03;;
17686;SDS011;8962;52.538;13.266;2023-02-24T03:57:53;18.90;;;3.80;;
17686;SDS011;8962;52.538;13.266;2023-02-24T04:00:36;18.13;;;3.35;;
17686;SDS011;8962;52.538;13.266;2023-02-24T04:03:12;15.43;;;3.78;;
17686;SDS011;8962;52.538;13.266;2023-02-24T04:05:52;18.33;;;3.78;;
17686;SDS011;8962;52.538;13.266;2023-02-24T04:08:28;17.92;;;3.63;;
17686;SDS011;8962;52.538;13.266;2023-02-24T04:11:06;15.60;;;4.00;;
17686;SDS011;8962;52.538;13.266;2023-02-24T04:13:42;16.60;;;3.20;;
17686;SDS011;8962;52.538;13.266;2023-02-24T04:16:20;22.30;;;4.35;;
17686;SDS011;8962;52.538;13.266;2023-02-24T04:18:54;17.55;;;3.75;;
17686;SDS011;8962;52.538;13.266;2023-02-24T04:21:27;15.50;;;3.72;;
17686;SDS011;8962;52.538;13.266;2023-02-24T04:23:57;15.27;;;3.83;;
17686;SDS011;8962;52.538;13.266;2023-02-24T04:26:31;20.00;;;3.85;;
17686;SDS011;8962;52.538;13.266;2023-02-24T04:29:00;16.90;;;4.10;;
17686;SDS011;8962;52.538;13.266;2023-02-24T04:31:28;15.98;;;3.38;;
17686;SDS011;8962;52.538;13.266;2023-02-24T04:33:57;9.05;;;3.53;;
17686;SDS011;8962;52.538;13.266;2023-02-24T04:36:33;14.35;;;3.47;;
17686;SDS011;8962;52.538;13.266;2023-02-24T04:39:06;12.98;;;3.17;;
17686;SDS011;8962;52.538;13.266;2023-02-24T04:41:34;13.77;;;3.38;;
17686;SDS011;8962;52.538;13.266;2023-02-24T04:44:01;14.35;;;3.30;;
17686;SDS011;8962;52.538;13.266;2023-02-24T04:46:30;13.05;;;2.90;;
17686;SDS011;8962;52.538;13.266;2023-02-24T04:48:57;15.77;;;2.97;;
17686;SDS011;8962;52.538;13.266;2023-02-24T04:51:26;11.00;;;3.10;;
17686;SDS011;8962;52.538;13.266;2023-02-24T04:53:56;9.05;;;2.78;;
17686;SDS011;8962;52.538;13.266;2023-02-24T04:56:24;10.25;;;3.10;;
17686;SDS011;8962;52.538;13.266;2023-02-24T04:58:53;15.82;;;3.03;;
17686;SDS011;8962;52.538;13.266;2023-02-24T05:01:21;12.93;;;3.40;;
17686;SDS011;8962;52.538;13.266;2023-02-24T05:03:48;13.45;;;3.30;;
17686;SDS011;8962;52.538;13.266;2023-02-24T05:06:15;12.98;;;3.00;;
17686;SDS011;8962;52.538;13.266;2023-02-24T05:08:43;16.30;;;3.45;;
17686;SDS011;8962;52.538;13.266;2023-02-24T05:11:11;9.65;;;3.15;;
17686;SDS011;8962;52.538;13.266;2023-02-24T05:13:43;11.15;;;2.70;;
17686;SDS011;8962;52.538;13.266;2023-02-24T05:16:12;16.77;;;3.22;;
17686;SDS011;8962;52.538;13.266;2023-02-24T05:18:41;11.70;;;2.67;;
17686;SDS011;8962;52.538;13.266;2023-02-24T05:21:10;10.55;;;2.65;;
17686;SDS011;8962;52.538;13.266;2023-02-24T05:23:55;16.15;;;2.83;;
17686;SDS011;8962;52.538;13.266;2023-02-24T05:26:23;10.70;;;2.50;;
17686;SDS011;8962;52.538;13.266;2023-02-24T05:28:53;12.02;;;3.00;;
17686;SDS011;8962;52.538;13.266;2023-02-24T05:31:24;15.40;;;2.75;;
17686;SDS011;8962;52.538;13.266;2023-02-24T05:33:54;13.77;;;2.78;;
17686;SDS011;8962;52.538;13.266;2023-02-24T05:36:23;12.90;;;2.55;;
17686;SDS011;8962;52.538;13.266;2023-02-24T05:38:53;10.32;;;2.58;;
17686;SDS011;8962;52.538;13.266;2023-02-24T05:41:23;8.50;;;2.20;;
17686;SDS011;8962;52.538;13.266;2023-02-24T05:43:58;10.77;;;2.60;;
17686;SDS011;8962;52.538;13.266;2023-02-24T05:46:29;14.65;;;2.60;;
17686;SDS011;8962;52.538;13.266;2023-02-24T05:48:59;9.13;;;2.08;;
17686;SDS011;8962;52.538;13.266;2023-02-24T05:51:29;10.43;;;2.22;;
17686;SDS011;8962;52.538;13.266;2023-02-24T05:53:59;9.23;;;2.45;;
17686;SDS011;8962;52.538;13.266;2023-02-24T05:56:29;8.05;;;2.20;;
17686;SDS011;8962;52.538;13.266;2023-02-24T05:59:00;11.90;;;2.05;;
17686;SDS011;8962;52.538;13.266;2023-02-24T06:01:28;8.98;;;2.17;;
17686;SDS011;8962;52.538;13.266;2023-02-24T06:03:57;9.77;;;2.45;;
17686;SDS011;8962;52.538;13.266;2023-02-24T06:06:30;10.85;;;2.25;;
17686;SDS011;8962;52.538;13.266;2023-02-24T06:09:00;14.10;;;2.95;;
17686;SDS011;8962;52.538;13.266;2023-02-24T06:11:32;14.88;;;2.28;;
17686;SDS011;8962;52.538;13.266;2023-02-24T06:14:01;17.75;;;3.08;;
17686;SDS011;8962;52.538;13.266;2023-02-24T06:16:31;10.82;;;2.85;;
17686;SDS011;8962;52.538;13.266;2023-02-24T06:18:58;10.60;;;2.35;;
17686;SDS011;8962;52.538;13.266;2023-02-24T06:21:26;10.75;;;2.45;;
17686;SDS011;8962;52.538;13.266;2023-02-24T06:23:54;11.55;;;2.38;;
17686;SDS011;8962;52.538;13.266;2023-02-24T06:26:22;11.68;;;2.00;;
17686;SDS011;8962;52.538;13.266;2023-02-24T06:28:54;11.55;;;2.30;;
17686;SDS011;8962;52.538;13.266;2023-02-24T06:31:24;11.15;;;2.40;;
17686;SDS011;8962;52.538;13.266;2023-02-24T06:33:52;9.18;;;1.90;;
17686;SDS011;8962;52.538;13.266;2023-02-24T06:36:20;13.52;;;2.28;;
17686;SDS011;8962;52.538;13.266;2023-02-24T06:38:48;9.63;;;2.13;;
17686;SDS011;8962;52.538;13.266;2023-02-24T06:41:16;9.90;;;1.98;;
17686;SDS011;8962;52.538;13.266;2023-02-24T06:43:44;12.00;;;2.95;;
17686;SDS011;8962;52.538;13.266;2023-02-24T06:46:14;9.57;;;2.35;;
17686;SDS011;8962;52.538;13.266;2023-02-24T06:48:42;9.20;;;2.35;;
17686;SDS011;8962;52.538;13.266;2023-02-24T06:51:13;8.70;;;2.13;;
17686;SDS011;8962;52.538;13.266;2023-02-24T06:53:41;13.88;;;2.83;;
17686;SDS011;8962;52.538;13.266;2023-02-24T06:56:09;10.45;;;2.30;;
17686;SDS011;8962;52.538;13.266;2023-02-24T06:58:40;11.65;;;2.40;;
17686;SDS011;8962;52.538;13.266;2023-02-24T07:01:11;12.93;;;2.38;;
17686;SDS011;8962;52.538;13.266;2023-02-24T07:03:39;9.45;;;2.55;;
17686;SDS011;8962;52.538;13.266;2023-02-24T07:06:13;10.50;;;1.90;;
17686;SDS011;8962;52.538;13.266;2023-02-24T07:08:48;13.93;;;2.38;;
17686;SDS011;8962;52.538;13.266;2023-02-24T07:11:16;8.65;;;2.28;;
17686;SDS011;8962;52.538;13.266;2023-02-24T07:13:43;12.25;;;2.38;;
17686;SDS011;8962;52.538;13.266;2023-02-24T07:16:12;13.43;;;2.45;;
17686;SDS011;8962;52.538;13.266;2023-02-24T07:18:40;11.98;;;2.28;;
17686;SDS011;8962;52.538;13.266;2023-02-24T07:21:08;11.55;;;2.70;;
17686;SDS011;8962;52.538;13.266;2023-02-24T07:23:38;9.10;;;2.10;;
17686;SDS011;8962;52.538;13.266;2023-02-24T07:26:07;10.13;;;2.58;;
17686;SDS011;8962;52.538;13.266;2023-02-24T07:28:36;8.60;;;2.55;;
17686;SDS011;8962;52.538;13.266;2023-02-24T07:31:04;10.07;;;2.20;;
17686;SDS011;8962;52.538;13.266;2023-02-24T07:33:34;10.38;;;2.28;;
17686;SDS011;8962;52.538;13.266;2023-02-24T07:36:10;13.27;;;2.65;;
17686;SDS011;8962;52.538;13.266;2023-02-24T07:38:40;10.82;;;2.60;;
17686;SDS011;8962;52.538;13.266;2023-02-24T07:41:09;10.10;;;2.22;;
17686;SDS011;8962;52.538;13.266;2023-02-24T07:43:37;7.88;;;2.20;;
17686;SDS011;8962;52.538;13.266;2023-02-24T07:46:08;11.48;;;2.53;;
17686;SDS011;8962;52.538;13.266;2023-02-24T07:48:37;9.48;;;2.90;;
17686;SDS011;8962;52.538;13.266;2023-02-24T07:51:06;9.57;;;3.00;;
17686;SDS011;8962;52.538;13.266;2023-02-24T07:53:33;11.98;;;2.75;;
17686;SDS011;8962;52.538;13.266;2023-02-24T07:56:06;12.15;;;2.70;;
17686;SDS011;8962;52.538;13.266;2023-02-24T07:58:37;8.60;;;2.50;;
17686;SDS011;8962;52.538;13.266;2023-02-24T08:01:06;13.80;;;2.55;;
17686;SDS011;8962;52.538;13.266;2023-02-24T08:03:42;11.00;;;2.67;;
17686;SDS011;8962;52.538;13.266;2023-02-24T08:06:09;8.70;;;2.50;;
17686;SDS011;8962;52.538;13.266;2023-02-24T08:08:40;13.70;;;2.70;;
17686;SDS011;8962;52.538;13.266;2023-02-24T08:11:25;9.95;;;2.78;;
17686;SDS011;8962;52.538;13.266;2023-02-24T08:13:58;13.55;;;2.97;;
17686;SDS011;8962;52.538;13.266;2023-02-24T08:16:26;8.75;;;2.20;;
17686;SDS011;8962;52.538;13.266;2023-02-24T08:19:03;7.90;;;2.45;;
17686;SDS011;8962;52.538;13.266;2023-02-24T08:21:31;7.95;;;2.33;;
17686;SDS011;8962;52.538;13.266;2023-02-24T08:24:06;11.18;;;2.42;;
17686;SDS011;8962;52.538;13.266;2023-02-24T08:26:43;12.93;;;2.90;;
17686;SDS011;8962;52.538;13.266;2023-02-24T08:29:17;11.35;;;2.35;;
17686;SDS011;8962;52.538;13.266;2023-02-24T08:31:45;10.73;;;2.10;;
17686;SDS011;8962;52.538;13.266;2023-02-24T08:34:14;11.25;;;2.50;;
17686;SDS011;8962;52.538;13.266;2023-02-24T08:36:41;10.98;;;2.50;;
17686;SDS011;8962;52.538;13.266;2023-02-24T08:39:12;9.23;;;2.55;;
17686;SDS011;8962;52.538;13.266;2023-02-24T08:41:43;12.27;;;2.60;;
17686;SDS011;8962;52.538;13.266;2023-02-24T08:44:15;8.00;;;2.30;;
17686;SDS011;8962;52.538;13.266;2023-02-24T08:46:44;11.55;;;2.97;;
17686;SDS011;8962;52.538;13.266;2023-02-24T08:49:14;18.45;;;3.80;;
17686;SDS011;8962;52.538;13.266;2023-02-24T08:51:43;15.95;;;3.05;;
17686;SDS011;8962;52.538;13.266;2023-02-24T08:54:13;12.07;;;2.88;;
17686;SDS011;8962;52.538;13.266;2023-02-24T08:56:41;10.77;;;3.28;;
17686;SDS011;8962;52.538;13.266;2023-02-24T08:59:14;16.33;;;3.22;;
17686;SDS011;8962;52.538;13.266;2023-02-24T09:02:02;13.88;;;3.53;;
17686;SDS011;8962;52.538;13.266;2023-02-24T09:04:53;13.25;;;2.85;;
17686;SDS011;8962;52.538;13.266;2023-02-24T09:07:22;13.07;;;3.03;;
17686;SDS011;8962;52.538;13.266;2023-02-24T09:09:51;7.78;;;2.60;;
17686;SDS011;8962;52.538;13.266;2023-02-24T09:12:22;8.57;;;3.50;;
17686;SDS011;8962;52.538;13.266;2023-02-24T09:14:53;10.40;;;2.72;;
17686;SDS011;8962;52.538;13.266;2023-02-24T09:17:22;10.68;;;2.90;;
17686;SDS011;8962;52.538;13.266;2023-02-24T09:20:15;13.05;;;3.10;;
17686;SDS011;8962;52.538;13.266;2023-02-24T09:23:01;6.88;;;2.60;;
17686;SDS011;8962;52.538;13.266;2023-02-24T09:25:30;11.02;;;2.70;;
17686;SDS011;8962;52.538;13.266;2023-02-24T09:28:11;9.32;;;2.85;;
17686;SDS011;8962;52.538;13.266;2023-02-24T09:30:42;10.80;;;3.65;;
17686;SDS011;8962;52.538;13.266;2023-02-24T09:33:19;13.25;;;2.78;;
17686;SDS011;8962;52.538;13.266;2023-02-24T09:35:53;6.68;;;2.33;;
17686;SDS011;8962;52.538;13.266;2023-02-24T09:38:37;8.60;;;2.75;;
17686;SDS011;8962;52.538;13.266;2023-02-24T09:41:36;9.75;;;2.67;;
17686;SDS011;8962;52.538;13.266;2023-02-24T09:44:26;14.20;;;2.75;;
17686;SDS011;8962;52.538;13.266;2023-02-24T09:47:00;11.20;;;2.38;;
17686;SDS011;8962;52.538;13.266;2023-02-24T09:49:38;9.73;;;2.83;;
17686;SDS011;8962;52.538;13.266;2023-02-24T09:52:13;14.32;;;3.08;;
17686;SDS011;8962;52.538;13.266;2023-02-24T09:54:43;10.95;;;2.80;;
17686;SDS011;8962;52.538;13.266;2023-02-24T09:57:43;9.52;;;2.20;;
17686;SDS011;8962;52.538;13.266;2023-02-24T10:00:39;12.13;;;2.53;;
17686;SDS011;8962;52.538;13.266;2023-02-24T10:03:17;11.55;;;2.35;;
17686;SDS011;8962;52.538;13.266;2023-02-24T10:06:10;7.38;;;2.47;;
17686;SDS011;8962;52.538;13.266;2023-02-24T10:08:46;8.85;;;2.30;;
17686;SDS011;8962;52.538;13.266;2023-02-24T10:11:19;11.68;;;2.22;;
17686;SDS011;8962;52.538;13.266;2023-02-24T10:13:59;10.48;;;2.58;;
17686;SDS011;8962;52.538;13.266;2023-02-24T10:16:30;7.47;;;1.98;;
17686;SDS011;8962;52.538;13.266;2023-02-24T10:19:10;11.23;;;2.50;;
17686;SDS011;8962;52.538;13.266;2023-02-24T10:21:49;9.05;;;2.20;;
17686;SDS011;8962;52.538;13.266;2023-02-24T10:24:28;14.30;;;2.30;;
17686;SDS011;8962;52.538;13.266;2023-02-24T10:27:02;6.38;;;2.17;;
17686;SDS011;8962;52.538;13.266;2023-02-24T10:29:42;8.88;;;2.05;;
17686;SDS011;8962;52.538;13.266;2023-02-24T10:32:26;9.65;;;2.20;;
17686;SDS011;8962;52.538;13.266;2023-02-24T10:35:01;8.43;;;2.50;;
17686;SDS011;8962;52.538;13.266;2023-02-24T10:37:30;6.50;;;2.15;;
17686;SDS011;8962;52.538;13.266;2023-02-24T10:39:58;11.10;;;2.40;;
17686;SDS011;8962;52.538;13.266;2023-02-24T10:42:33;10.85;;;2.28;;
17686;SDS011;8962;52.538;13.266;2023-02-24T10:45:12;7.53;;;1.77;;
17686;SDS011;8962;52.538;13.266;2023-02-24T10:47:42;7.95;;;2.08;;
17686;SDS011;8962;52.538;13.266;2023-02-24T10:50:21;10.27;;;2.72;;
17686;SDS011;8962;52.538;13.266;2023-02-24T10:52:50;8.73;;;2.30;;
17686;SDS011;8962;52.538;13.266;2023-02-24T10:55:35;10.82;;;2.10;;
17686;SDS011;8962;52.538;13.266;2023-02-24T10:58:19;7.05;;;2.03;;
17686;SDS011;8962;52.538;13.266;2023-02-24T11:01:07;8.93;;;2.55;;
17686;SDS011;8962;52.538;13.266;2023-02-24T11:03:45;6.25;;;2.00;;
17686;SDS011;8962;52.538;13.266;2023-02-24T11:06:26;6.07;;;2.20;;
17686;SDS011;8962;52.538;13.266;2023-02-24T11:09:17;9.50;;;2.30;;
17686;SDS011;8962;52.538;13.266;2023-02-24T11:12:03;10.27;;;2.78;;
17686;SDS011;8962;52.538;13.266;2023-02-24T11:14:50;7.22;;;2.30;;
17686;SDS011;8962;52.538;13.266;2023-02-24T11:17:46;10.93;;;3.17;;
17686;SDS011;8962;52.538;13.266;2023-02-24T11:20:26;7.55;;;2.80;;
17686;SDS011;8962;52.538;13.266;2023-02-24T11:22:56;7.80;;;3.20;;
17686;SDS011;8962;52.538;13.266;2023-02-24T11:25:24;12.50;;;2.38;;
17686;SDS011;8962;52.538;13.266;2023-02-24T11:27:53;6.90;;;2.60;;
17686;SDS011;8962;52.538;13.266;2023-02-24T11:30:28;7.53;;;2.60;;
17686;SDS011;8962;52.538;13.266;2023-02-24T11:33:13;6.18;;;2.80;;
17686;SDS011;8962;52.538;13.266;2023-02-24T11:35:47;7.38;;;2.70;;
17686;SDS011;8962;52.538;13.266;2023-02-24T11:38:33;12.68;;;3.05;;
17686;SDS011;8962;52.538;13.266;2023-02-24T11:41:07;7.15;;;2.70;;
17686;SDS011;8962;52.538;13.266;2023-02-24T11:43:42;7.07;;;2.28;;
17686;SDS011;8962;52.538;13.266;2023-02-24T11:46:16;6.90;;;2.80;;
17686;SDS011;8962;52.538;13.266;2023-02-24T11:48:50;10.38;;;2.88;;
17686;SDS011;8962;52.538;13.266;2023-02-24T11:51:21;9.40;;;2.60;;
17686;SDS011;8962;52.538;13.266;2023-02-24T11:53:52;5.57;;;2.17;;
17686;SDS011;8962;52.538;13.266;2023-02-24T11:56:24;6.05;;;2.17;;
17686;SDS011;8962;52.538;13.266;2023-02-24T11:58:56;6.10;;;2.03;;
17686;SDS011;8962;52.538;13.266;2023-02-24T12:01:28;4.88;;;2.42;;
17686;SDS011;8962;52.538;13.266;2023-02-24T12:04:03;4.40;;;2.08;;
17686;SDS011;8962;52.538;13.266;2023-02-24T12:06:38;7.13;;;2.85;;
17686;SDS011;8962;52.538;13.266;2023-02-24T12:09:12;8.35;;;2.78;;
17686;SDS011;8962;52.538;13.266;2023-02-24T12:11:45;9.75;;;2.30;;
17686;SDS011;8962;52.538;13.266;2023-02-24T12:14:20;11.63;;;2.70;;
17686;SDS011;8962;52.538;13.266;2023-02-24T12:16:53;6.53;;;2.20;;
17686;SDS011;8962;52.538;13.266;2023-02-24T12:19:31;6.25;;;2.40;;
17686;SDS011;8962;52.538;13.266;2023-02-24T12:22:04;6.85;;;2.38;;
17686;SDS011;8962;52.538;13.266;2023-02-24T12:24:37;8.63;;;2.78;;
17686;SDS011;8962;52.538;13.266;2023-02-24T12:27:10;5.47;;;2.10;;
17686;SDS011;8962;52.538;13.266;2023-02-24T12:29:59;7.32;;;2.28;;
17686;SDS011;8962;52.538;13.266;2023-02-24T12:32:51;9.75;;;2.63;;
17686;SDS011;8962;52.538;13.266;2023-02-24T12:35:29;8.48;;;2.35;;
17686;SDS011;8962;52.538;13.266;2023-02-24T12:38:03;5.03;;;2.13;;
17686;SDS011;8962;52.538;13.266;2023-02-24T12:40:53;6.90;;;2.13;;
17686;SDS011;8962;52.538;13.266;2023-02-24T12:43:26;6.25;;;2.40;;
17686;SDS011;8962;52.538;13.266;2023-02-24T12:46:00;6.68;;;2.20;;
17686;SDS011;8962;52.538;13.266;2023-02-24T12:48:40;5.85;;;2.20;;
17686;SDS011;8962;52.538;13.266;2023-02-24T12:51:25;7.15;;;2.35;;
17686;SDS011;8962;52.538;13.266;2023-02-24T12:53:58;6.45;;;2.10;;
17686;SDS011;8962;52.538;13.266;2023-02-24T12:56:33;8.30;;;2.20;;
17686;SDS011;8962;52.538;13.266;2023-02-24T12:59:07;5.60;;;2.42;;
17686;SDS011;8962;52.538;13.266;2023-02-24T13:01:39;5.82;;;2.05;;
17686;SDS011;8962;52.538;13.266;2023-02-24T13:04:33;7.78;;;2.28;;
17686;SDS011;8962;52.538;13.266;2023-02-24T13:07:17;5.07;;;1.90;;
17686;SDS011;8962;52.538;13.266;2023-02-24T13:12:46;8.70;;;2.15;;
17686;SDS011;8962;52.538;13.266;2023-02-24T13:15:19;4.55;;;2.28;;
17686;SDS011;8962;52.538;13.266;2023-02-24T13:17:50;6.72;;;2.05;;
17686;SDS011;8962;52.538;13.266;2023-02-24T13:20:25;5.75;;;1.92;;
17686;SDS011;8962;52.538;13.266;2023-02-24T13:22:57;4.68;;;2.30;;
17686;SDS011;8962;52.538;13.266;2023-02-24T13:25:28;6.47;;;2.10;;
17686;SDS011;8962;52.538;13.266;2023-02-24T13:27:59;23.52;;;10.65;;
17686;SDS011;8962;52.538;13.266;2023-02-24T13:30:31;18.92;;;8.15;;
17686;SDS011;8962;52.538;13.266;2023-02-24T13:33:05;4.70;;;2.70;;
17686;SDS011;8962;52.538;13.266;2023-02-24T13:35:49;8.57;;;2.63;;
17686;SDS011;8962;52.538;13.266;2023-02-24T13:38:24;7.57;;;2.70;;
17686;SDS011;8962;52.538;13.266;2023-02-24T13:41:05;5.25;;;2.63;;
17686;SDS011;8962;52.538;13.266;2023-02-24T13:43:35;4.57;;;2.58;;
17686;SDS011;8962;52.538;13.266;2023-02-24T13:46:12;5.70;;;2.75;;
17686;SDS011;8962;52.538;13.266;2023-02-24T13:48:52;4.75;;;2.90;;
17686;SDS011;8962;52.538;13.266;2023-02-24T13:54:33;11.13;;;3.20;;
17686;SDS011;8962;52.538;13.266;2023-02-24T13:57:24;7.60;;;3.20;;
17686;SDS011;8962;52.538;13.266;2023-02-24T14:00:10;16.50;;;5.70;;
17686;SDS011;8962;52.538;13.266;2023-02-24T14:02:48;7.47;;;3.35;;
17686;SDS011;8962;52.538;13.266;2023-02-24T14:05:18;7.78;;;3.25;;
17686;SDS011;8962;52.538;13.266;2023-02-24T14:07:50;6.18;;;3.80;;
17686;SDS011;8962;52.538;13.266;2023-02-24T14:10:20;5.57;;;3.15;;
17686;SDS011;8962;52.538;13.266;2023-02-24T14:12:56;6.55;;;3.15;;
17686;SDS011;8962;52.538;13.266;2023-02-24T14:15:29;10.38;;;4.55;;
17686;SDS011;8962;52.538;13.266;2023-02-24T14:17:58;5.28;;;3.22;;
17686;SDS011;8962;52.538;13.266;2023-02-24T14:20:27;4.97;;;3.33;;
17686;SDS011;8962;52.538;13.266;2023-02-24T14:22:58;8.35;;;3.75;;
17686;SDS011;8962;52.538;13.266;2023-02-24T14:25:29;5.78;;;3.42;;
17686;SDS011;8962;52.538;13.266;2023-02-24T14:28:03;5.15;;;3.30;;
17686;SDS011;8962;52.538;13.266;2023-02-24T14:30:32;5.55;;;3.15;;
17686;SDS011;8962;52.538;13.266;2023-02-24T14:33:01;7.63;;;3.15;;
17686;SDS011;8962;52.538;13.266;2023-02-24T14:35:31;5.82;;;3.38;;
17686;SDS011;8962;52.538;13.266;2023-02-24T14:38:03;5.53;;;3.50;;
17686;SDS011;8962;52.538;13.266;2023-02-24T14:40:32;6.65;;;3.35;;
17686;SDS011;8962;52.538;13.266;2023-02-24T14:42:59;9.48;;;3.08;;
17686;SDS011;8962;52.538;13.266;2023-02-24T14:45:27;6.32;;;3.00;;
17686;SDS011;8962;52.538;13.266;2023-02-24T14:47:55;12.35;;;6.03;;
17686;SDS011;8962;52.538;13.266;2023-02-24T14:50:23;4.88;;;3.35;;
17686;SDS011;8962;52.538;13.266;2023-02-24T14:52:55;10.15;;;4.30;;
17686;SDS011;8962;52.538;13.266;2023-02-24T14:55:28;4.95;;;3.22;;
17686;SDS011;8962;52.538;13.266;2023-02-24T14:58:00;6.43;;;3.20;;
17686;SDS011;8962;52.538;13.266;2023-02-24T15:00:30;5.47;;;3.25;;
17686;SDS011;8962;52.538;13.266;2023-02-24T15:03:02;7.05;;;3.55;;
17686;SDS011;8962;52.538;13.266;2023-02-24T15:05:33;6.03;;;3.80;;
17686;SDS011;8962;52.538;13.266;2023-02-24T15:08:04;4.57;;;3.03;;
17686;SDS011;8962;52.538;13.266;2023-02-24T15:10:48;4.70;;;3.53;;
17686;SDS011;8962;52.538;13.266;2023-02-24T15:13:21;5.40;;;3.40;;
17686;SDS011;8962;52.538;13.266;2023-02-24T15:15:55;4.38;;;3.25;;
17686;SDS011;8962;52.538;13.266;2023-02-24T15:18:23;6.00;;;3.33;;
17686;SDS011;8962;52.538;13.266;2023-02-24T15:20:58;4.25;;;3.33;;
17686;SDS011;8962;52.538;13.266;2023-02-24T15:23:27;3.97;;;2.90;;
17686;SDS011;8962;52.538;13.266;2023-02-24T15:25:57;4.50;;;3.00;;
17686;SDS011;8962;52.538;13.266;2023-02-24T15:28:27;4.57;;;3.00;;
17686;SDS011;8962;52.538;13.266;2023-02-24T15:31:01;4.70;;;3.22;;